createdAt,value
2023-04-15T00:02:33.022Z,1.55
2023-04-15T00:07:54.028Z,2.88
2023-04-15T00:13:15.519Z,1.10
2023-04-15T00:18:37.527Z,1.00
2023-04-15T00:23:58.292Z,1.00
2023-04-15T00:29:19.036Z,1.30
2023-04-15T00:34:40.247Z,1.42
2023-04-15T00:40:02.052Z,0.70
2023-04-15T00:45:23.325Z,1.17
2023-04-15T00:50:44.269Z,1.65
2023-04-15T00:56:05.932Z,1.90
2023-04-15T01:01:27.364Z,2.25
2023-04-15T01:06:48.368Z,0.77
2023-04-15T01:12:15.576Z,0.68
2023-04-15T01:17:36.614Z,0.80
2023-04-15T01:23:01.481Z,0.70
2023-04-15T01:28:22.456Z,0.80
2023-04-15T01:33:43.417Z,0.57
2023-04-15T01:39:05.666Z,0.60
2023-04-15T01:44:26.584Z,0.30
2023-04-15T01:49:47.267Z,0.60
2023-04-15T01:55:09.167Z,0.38
2023-04-15T02:00:30.773Z,0.30
2023-04-15T02:05:52.207Z,0.40
2023-04-15T02:11:13.016Z,0.40
2023-04-15T02:16:34.244Z,0.50
2023-04-15T02:21:54.804Z,0.50
2023-04-15T02:27:17.778Z,0.70
2023-04-15T02:32:39.328Z,0.60
2023-04-15T02:38:01.050Z,0.52
2023-04-15T02:43:22.451Z,1.25
2023-04-15T02:48:45.172Z,0.88
2023-04-15T02:54:05.804Z,0.50
2023-04-15T02:59:26.834Z,0.65
2023-04-15T03:04:47.926Z,0.70
2023-04-15T03:10:09.566Z,0.82
2023-04-15T03:15:30.947Z,0.70
2023-04-15T03:20:51.633Z,0.70
2023-04-15T03:26:31.705Z,0.55
2023-04-15T03:31:56.340Z,0.88
2023-04-15T03:37:17.239Z,0.85
2023-04-15T03:42:38.163Z,3.28
2023-04-15T03:48:07.328Z,7.88
2023-04-15T03:53:37.068Z,5.50
2023-04-15T03:58:57.724Z,5.35
2023-04-15T04:04:18.612Z,4.28
2023-04-15T04:09:40.678Z,5.30
2023-04-15T04:15:01.768Z,5.70
2023-04-15T04:20:22.720Z,3.55
2023-04-15T04:25:43.711Z,3.65
2023-04-15T04:31:04.602Z,3.38
2023-04-15T04:36:25.241Z,5.60
2023-04-15T04:41:46.072Z,2.38
2023-04-15T04:47:07.666Z,3.05
2023-04-15T04:52:28.591Z,2.55
2023-04-15T04:57:49.214Z,4.93
2023-04-15T05:03:10.193Z,3.30
2023-04-15T05:08:31.525Z,3.15
2023-04-15T05:13:52.149Z,2.95
2023-04-15T05:19:12.998Z,2.15
2023-04-15T05:24:33.727Z,2.30
2023-04-15T05:29:54.653Z,2.35
2023-04-15T05:35:15.421Z,2.63
2023-04-15T05:40:36.985Z,3.70
2023-04-15T05:45:57.840Z,3.53
2023-04-15T05:51:18.626Z,2.33
2023-04-15T05:56:39.378Z,2.05
2023-04-15T06:02:00.343Z,2.53
2023-04-15T06:07:21.162Z,3.03
2023-04-15T06:12:42.166Z,2.58
2023-04-15T06:18:03.324Z,2.67
2023-04-15T06:23:24.883Z,2.15
2023-04-15T06:28:47.079Z,2.55
2023-04-15T06:34:07.846Z,1.70
2023-04-15T06:39:28.997Z,6.13
2023-04-15T06:44:50.006Z,1.60
2023-04-15T06:50:11.616Z,1.85
2023-04-15T06:55:32.433Z,1.65
2023-04-15T07:00:53.272Z,1.45
2023-04-15T07:06:14.427Z,2.13
2023-04-15T07:11:35.405Z,0.95
2023-04-15T07:16:56.547Z,0.40
2023-04-15T07:22:17.176Z,0.70
2023-04-15T07:27:38.182Z,0.90
2023-04-15T07:32:59.284Z,0.60
2023-04-15T07:38:20.444Z,1.42
2023-04-15T07:43:41.276Z,1.00
2023-04-15T07:49:02.273Z,0.65
2023-04-15T07:54:23.538Z,0.63
2023-04-15T07:59:44.380Z,0.40
2023-04-15T08:05:05.530Z,0.70
2023-04-15T08:10:26.389Z,0.70
2023-04-15T08:16:13.649Z,1.15
2023-04-15T08:21:34.688Z,0.65
2023-04-15T08:26:56.763Z,0.98
2023-04-15T08:32:17.605Z,0.70
2023-04-15T08:37:38.354Z,0.90
2023-04-15T08:43:00.064Z,2.65
2023-04-15T08:48:24.587Z,1.83
2023-04-15T08:53:47.576Z,1.30
2023-04-15T08:59:09.861Z,2.75
2023-04-15T09:04:31.506Z,1.80
2023-04-15T09:09:52.916Z,1.65
2023-04-15T09:15:14.331Z,0.80
2023-04-15T09:20:42.742Z,3.25
2023-04-15T09:26:04.900Z,2.20
2023-04-15T09:31:31.359Z,3.17
2023-04-15T09:36:55.103Z,1.70
2023-04-15T09:42:17.040Z,1.83
2023-04-15T09:47:38.423Z,1.98
2023-04-15T09:52:59.887Z,2.00
2023-04-15T09:58:21.590Z,1.83
2023-04-15T10:03:42.795Z,1.85
2023-04-15T10:09:03.615Z,1.67
2023-04-15T10:14:26.668Z,1.25
2023-04-15T10:19:49.452Z,1.33
2023-04-15T10:25:11.807Z,0.60
2023-04-15T10:30:34.082Z,1.92
2023-04-15T10:35:56.151Z,2.92
2023-04-15T10:41:21.901Z,1.38
2023-04-15T10:46:45.174Z,2.25
2023-04-15T10:52:08.484Z,1.83
2023-04-15T10:57:36.267Z,1.13
2023-04-15T11:03:07.478Z,2.63
2023-04-15T11:09:13.464Z,2.35
2023-04-15T11:14:35.977Z,1.65
2023-04-15T11:19:58.211Z,1.10
2023-04-15T11:25:26.628Z,1.13
2023-04-15T11:30:48.398Z,4.15
2023-04-15T11:36:10.774Z,4.63
2023-04-15T11:41:31.861Z,1.80
2023-04-15T11:46:52.544Z,2.67
2023-04-15T11:52:13.293Z,1.48
2023-04-15T11:57:35.364Z,1.35
2023-04-15T12:03:31.098Z,2.30
2023-04-15T12:09:03.829Z,2.58
2023-04-15T12:14:28.349Z,1.55
2023-04-15T12:19:50.185Z,1.30
2023-04-15T12:25:10.948Z,0.73
2023-04-15T12:30:32.854Z,2.17
2023-04-15T12:35:53.842Z,1.75
2023-04-15T12:41:14.550Z,0.90
2023-04-15T12:46:35.398Z,3.55
2023-04-15T12:51:57.499Z,1.80
2023-04-15T12:57:18.142Z,1.25
2023-04-15T13:02:38.917Z,1.67
2023-04-15T13:08:00.063Z,1.75
2023-04-15T13:13:21.139Z,1.20
2023-04-15T13:18:42.294Z,6.13
2023-04-15T13:24:03.807Z,1.35
2023-04-15T13:29:24.685Z,1.10
2023-04-15T13:34:45.515Z,1.13
2023-04-15T13:40:07.561Z,1.45
2023-04-15T13:45:28.783Z,0.90
2023-04-15T13:50:49.452Z,0.93
2023-04-15T13:56:10.378Z,2.03
2023-04-15T14:01:31.295Z,1.50
2023-04-15T14:06:51.986Z,2.60
2023-04-15T14:12:12.690Z,1.63
2023-04-15T14:17:33.780Z,5.07
2023-04-15T14:22:54.683Z,5.55
2023-04-15T14:28:15.858Z,3.28
2023-04-15T14:33:36.731Z,2.60
2023-04-15T14:38:57.519Z,3.47
2023-04-15T14:44:18.629Z,1.55
2023-04-15T14:49:39.273Z,1.85
2023-04-15T14:54:59.893Z,2.42
2023-04-15T15:00:20.635Z,1.35
2023-04-15T15:05:43.255Z,4.85
2023-04-15T15:11:03.993Z,1.58
2023-04-15T15:16:25.362Z,1.33
2023-04-15T15:21:47.057Z,1.65
2023-04-15T15:27:08.139Z,2.03
2023-04-15T15:32:28.966Z,1.60
2023-04-15T15:37:49.616Z,1.58
2023-04-15T15:43:11.342Z,2.75
2023-04-15T15:48:32.195Z,1.98
2023-04-15T15:53:53.004Z,2.67
2023-04-15T15:59:13.865Z,1.42
2023-04-15T16:04:34.697Z,1.88
2023-04-15T16:09:55.924Z,2.72
2023-04-15T16:15:16.742Z,1.75
2023-04-15T16:20:39.044Z,1.58
2023-04-15T16:25:59.920Z,2.10
2023-04-15T16:31:20.744Z,2.03
2023-04-15T16:36:41.651Z,2.08
2023-04-15T16:42:03.340Z,3.15
2023-04-15T16:47:24.083Z,2.95
2023-04-15T16:52:44.795Z,2.20
2023-04-15T16:58:08.358Z,1.83
2023-04-15T17:03:29.302Z,2.17
2023-04-15T17:08:51.660Z,2.35
2023-04-15T17:14:12.483Z,2.10
2023-04-15T17:19:33.721Z,2.10
2023-04-15T17:24:54.415Z,5.82
2023-04-15T17:30:15.204Z,1.55
2023-04-15T17:35:36.107Z,3.63
2023-04-15T17:40:57.205Z,4.35
2023-04-15T17:46:19.416Z,2.80
2023-04-15T17:51:40.254Z,6.05
2023-04-15T17:57:03.272Z,3.72
2023-04-15T18:02:24.306Z,3.38
2023-04-15T18:07:45.755Z,2.40
2023-04-15T18:13:06.670Z,1.90
2023-04-15T18:18:28.255Z,3.33
2023-04-15T18:23:49.363Z,3.25
2023-04-15T18:29:10.775Z,4.20
2023-04-15T18:34:31.568Z,3.78
2023-04-15T18:39:52.403Z,3.92
2023-04-15T18:45:13.442Z,4.43
2023-04-15T18:50:34.147Z,3.60
2023-04-15T18:55:56.372Z,6.60
2023-04-15T19:01:17.553Z,4.72
2023-04-15T19:06:38.215Z,7.18
2023-04-15T19:11:59.019Z,5.72
2023-04-15T19:17:19.822Z,7.07
2023-04-15T19:22:41.716Z,5.40
2023-04-15T19:28:02.575Z,6.90
2023-04-15T19:33:23.393Z,7.80
2023-04-15T19:38:44.204Z,6.95
2023-04-15T19:44:05.962Z,5.75
2023-04-15T19:49:27.051Z,5.88
2023-04-15T19:54:47.878Z,5.35
2023-04-15T20:00:09.622Z,6.65
2023-04-15T20:05:30.512Z,6.68
2023-04-15T20:10:51.527Z,8.38
2023-04-15T20:16:13.412Z,6.35
2023-04-15T20:21:37.532Z,6.13
2023-04-15T20:26:58.615Z,11.73
2023-04-15T20:32:19.572Z,16.75
2023-04-15T20:37:43.661Z,9.85
2023-04-15T20:43:04.471Z,6.35
2023-04-15T20:48:25.130Z,10.65
2023-04-15T20:53:45.982Z,7.50
2023-04-15T20:59:07.016Z,10.57
2023-04-15T21:04:28.021Z,8.02
2023-04-15T21:09:49.322Z,7.30
2023-04-15T21:15:10.758Z,10.93
2023-04-15T21:20:31.374Z,12.60
2023-04-15T21:25:51.961Z,10.65
2023-04-15T21:31:12.540Z,9.38
2023-04-15T21:36:34.002Z,8.25
2023-04-15T21:41:55.033Z,8.38
2023-04-15T21:47:16.071Z,9.23
2023-04-15T21:52:37.262Z,8.23
2023-04-15T21:57:57.926Z,10.63
2023-04-15T22:03:18.976Z,8.68
2023-04-15T22:08:53.136Z,10.65
2023-04-15T22:14:17.544Z,10.15
2023-04-15T22:19:38.176Z,7.45
2023-04-15T22:24:58.834Z,7.18
2023-04-15T22:30:19.548Z,7.63
2023-04-15T22:35:40.263Z,7.88
2023-04-15T22:41:01.300Z,7.70
2023-04-15T22:46:22.188Z,7.95
2023-04-15T22:51:43.699Z,8.20
2023-04-15T22:57:04.742Z,7.72
2023-04-15T23:02:25.630Z,6.88
2023-04-15T23:07:46.555Z,8.77
2023-04-15T23:13:07.600Z,9.38
2023-04-15T23:18:28.512Z,8.15
2023-04-15T23:23:49.576Z,8.65
2023-04-15T23:29:10.455Z,9.80
2023-04-15T23:34:31.553Z,7.38
2023-04-15T23:39:52.283Z,8.48
2023-04-15T23:45:13.332Z,8.50
2023-04-15T23:50:34.134Z,8.10
2023-04-15T23:55:54.781Z,9.52
